createdAt,value
2022-07-29T00:01:44.474Z,23.79
2022-07-29T00:04:13.032Z,23.77
2022-07-29T00:06:42.425Z,23.75
2022-07-29T00:09:10.536Z,23.72
2022-07-29T00:11:38.547Z,23.70
2022-07-29T00:14:06.735Z,23.67
2022-07-29T00:16:35.348Z,23.62
2022-07-29T00:19:06.053Z,23.53
2022-07-29T00:21:36.028Z,23.49
2022-07-29T00:24:04.273Z,23.48
2022-07-29T00:26:33.689Z,23.46
2022-07-29T00:29:32.401Z,23.43
2022-07-29T00:31:52.396Z,23.40
2022-07-29T00:34:38.939Z,23.39
2022-07-29T00:37:07.853Z,23.37
2022-07-29T00:39:36.402Z,23.37
2022-07-29T00:42:05.903Z,23.37
2022-07-29T00:44:39.119Z,23.35
2022-07-29T00:47:08.978Z,23.33
2022-07-29T00:49:39.366Z,23.33
2022-07-29T00:52:08.844Z,23.32
2022-07-29T00:54:44.091Z,23.31
2022-07-29T00:57:28.460Z,23.29
2022-07-29T00:59:57.003Z,23.24
2022-07-29T01:02:25.391Z,23.19
2022-07-29T01:04:54.812Z,23.10
2022-07-29T01:07:23.040Z,23.04
2022-07-29T01:09:52.336Z,22.97
2022-07-29T01:12:27.252Z,22.92
2022-07-29T01:14:57.170Z,22.92
2022-07-29T01:17:27.278Z,22.92
2022-07-29T01:20:16.860Z,22.91
2022-07-29T01:23:01.517Z,22.90
2022-07-29T01:26:09.677Z,22.86
2022-07-29T01:28:56.629Z,22.79
2022-07-29T01:31:51.359Z,22.78
2022-07-29T01:34:57.294Z,22.76
2022-07-29T01:37:25.489Z,22.76
2022-07-29T01:39:56.479Z,22.78
2022-07-29T01:42:36.980Z,22.79
2022-07-29T01:45:50.767Z,22.81
2022-07-29T01:48:41.520Z,22.79
2022-07-29T01:51:22.326Z,22.76
2022-07-29T01:54:12.032Z,22.74
2022-07-29T01:56:43.363Z,22.69
2022-07-29T01:59:12.794Z,22.62
2022-07-29T02:01:44.205Z,22.57
2022-07-29T02:04:29.070Z,22.53
2022-07-29T02:07:02.990Z,22.54
2022-07-29T02:09:34.419Z,22.55
2022-07-29T02:12:04.531Z,22.55
2022-07-29T02:14:37.886Z,22.56
2022-07-29T02:17:06.544Z,22.57
2022-07-29T02:19:48.616Z,22.59
2022-07-29T02:22:17.880Z,22.61
2022-07-29T02:24:47.438Z,22.60
2022-07-29T02:27:16.479Z,22.62
2022-07-29T02:29:47.976Z,22.66
2022-07-29T02:32:19.064Z,22.68
2022-07-29T02:34:48.837Z,22.71
2022-07-29T02:37:18.281Z,22.72
2022-07-29T02:39:49.968Z,22.73
2022-07-29T02:42:25.162Z,22.73
2022-07-29T02:44:53.578Z,22.74
2022-07-29T02:47:26.952Z,22.75
2022-07-29T02:50:09.470Z,22.77
2022-07-29T02:53:06.781Z,22.79
2022-07-29T02:55:47.803Z,22.79
2022-07-29T02:58:30.338Z,22.80
2022-07-29T03:01:02.595Z,22.81
2022-07-29T03:03:37.278Z,22.82
2022-07-29T03:06:07.134Z,22.82
2022-07-29T03:08:36.964Z,22.82
2022-07-29T03:11:05.870Z,22.81
2022-07-29T03:13:35.526Z,22.79
2022-07-29T03:16:10.972Z,22.77
2022-07-29T03:18:47.854Z,22.76
2022-07-29T03:21:16.231Z,22.76
2022-07-29T03:25:03.025Z,22.72
2022-07-29T03:27:00.815Z,22.68
2022-07-29T03:29:33.287Z,22.63
2022-07-29T03:32:24.071Z,22.58
2022-07-29T03:34:59.525Z,22.50
2022-07-29T03:37:45.954Z,22.43
2022-07-29T03:40:43.508Z,22.42
2022-07-29T03:43:19.016Z,22.45
2022-07-29T03:46:12.766Z,22.48
2022-07-29T03:48:51.841Z,22.50
2022-07-29T03:51:20.320Z,22.53
2022-07-29T03:54:14.039Z,22.56
2022-07-29T03:56:56.538Z,22.59
2022-07-29T03:59:25.002Z,22.61
2022-07-29T04:01:53.499Z,22.65
2022-07-29T04:04:21.799Z,22.67
2022-07-29T04:06:49.743Z,22.70
2022-07-29T04:09:17.951Z,22.72
2022-07-29T04:12:02.146Z,22.75
2022-07-29T04:14:34.611Z,22.77
2022-07-29T04:17:04.647Z,22.80
2022-07-29T04:19:33.358Z,22.83
2022-07-29T04:22:02.058Z,22.85
2022-07-29T04:24:30.109Z,22.88
2022-07-29T04:26:58.470Z,22.92
2022-07-29T04:29:26.643Z,22.96
2022-07-29T04:31:54.943Z,23.00
2022-07-29T04:37:20.397Z,23.06
2022-07-29T04:39:48.605Z,23.09
2022-07-29T04:42:16.798Z,23.12
2022-07-29T04:44:45.502Z,23.15
2022-07-29T04:47:13.879Z,23.18
2022-07-29T04:49:41.979Z,23.20
2022-07-29T04:52:10.045Z,23.23
2022-07-29T04:54:38.312Z,23.28
2022-07-29T04:57:06.369Z,23.35
2022-07-29T04:59:47.388Z,23.42
2022-07-29T05:02:15.391Z,23.50
2022-07-29T05:04:43.292Z,23.59
2022-07-29T05:07:11.381Z,23.67
2022-07-29T05:09:39.306Z,23.77
2022-07-29T05:12:08.189Z,23.91
2022-07-29T05:14:36.163Z,23.97
2022-07-29T05:17:04.293Z,23.98
2022-07-29T05:19:33.044Z,23.99
2022-07-29T05:22:01.176Z,24.04
2022-07-29T05:24:29.196Z,24.04
2022-07-29T05:26:57.128Z,24.09
2022-07-29T05:29:42.764Z,24.16
2022-07-29T05:32:14.231Z,24.22
2022-07-29T05:34:51.216Z,24.29
2022-07-29T05:37:22.423Z,24.35
2022-07-29T05:39:56.602Z,24.40
2022-07-29T05:42:27.068Z,24.45
2022-07-29T05:44:55.120Z,24.51
2022-07-29T05:47:24.018Z,24.60
2022-07-29T05:49:53.211Z,24.72
2022-07-29T05:52:22.701Z,24.87
2022-07-29T05:54:50.680Z,25.03
2022-07-29T05:57:18.661Z,25.16
2022-07-29T05:59:46.890Z,25.30
2022-07-29T06:02:15.839Z,25.44
2022-07-29T06:04:45.167Z,25.59
2022-07-29T06:07:13.407Z,25.79
2022-07-29T06:09:41.685Z,26.23
2022-07-29T06:12:10.580Z,26.63
2022-07-29T06:14:39.342Z,26.75
2022-07-29T06:17:07.637Z,26.85
2022-07-29T06:19:37.552Z,26.94
2022-07-29T06:22:05.674Z,27.05
2022-07-29T06:24:36.935Z,27.13
2022-07-29T06:27:05.114Z,27.27
2022-07-29T06:29:33.299Z,27.44
2022-07-29T06:32:04.598Z,27.72
2022-07-29T06:34:32.993Z,28.03
2022-07-29T06:37:01.217Z,28.28
2022-07-29T06:39:29.345Z,28.47
2022-07-29T06:41:57.491Z,28.55
2022-07-29T06:44:26.493Z,28.62
2022-07-29T06:46:55.836Z,28.72
2022-07-29T06:49:25.548Z,28.76
2022-07-29T06:51:53.667Z,28.80
2022-07-29T06:54:22.833Z,28.83
2022-07-29T06:56:50.959Z,28.89
2022-07-29T06:59:20.554Z,28.96
2022-07-29T07:01:51.178Z,29.06
2022-07-29T07:04:19.646Z,29.18
2022-07-29T07:06:53.223Z,29.25
2022-07-29T07:09:57.275Z,29.13
2022-07-29T07:12:34.076Z,29.07
2022-07-29T07:15:06.182Z,29.10
2022-07-29T07:17:34.292Z,29.22
2022-07-29T07:20:18.023Z,29.28
2022-07-29T07:22:46.471Z,29.03
2022-07-29T07:25:14.629Z,28.93
2022-07-29T07:27:43.522Z,28.98
2022-07-29T07:30:12.414Z,29.05
2022-07-29T07:32:41.256Z,29.06
2022-07-29T07:35:38.580Z,29.05
2022-07-29T07:38:08.051Z,28.97
2022-07-29T07:40:36.593Z,28.94
2022-07-29T07:45:53.284Z,28.91
2022-07-29T07:48:21.886Z,28.86
2022-07-29T07:50:50.509Z,28.64
2022-07-29T07:53:41.435Z,28.48
2022-07-29T07:56:11.431Z,28.47
2022-07-29T07:58:40.556Z,28.68
2022-07-29T08:01:09.796Z,28.99
2022-07-29T08:03:42.056Z,29.22
2022-07-29T08:06:10.141Z,29.46
2022-07-29T08:08:38.268Z,29.76
2022-07-29T08:11:09.793Z,30.08
2022-07-29T08:13:40.452Z,30.43
2022-07-29T08:16:13.340Z,30.69
2022-07-29T08:18:43.287Z,30.70
2022-07-29T08:21:11.243Z,30.59
2022-07-29T08:24:15.552Z,30.37
2022-07-29T08:26:51.340Z,30.29
2022-07-29T08:37:32.933Z,29.64
2022-07-29T08:40:01.057Z,29.91
2022-07-29T08:42:39.208Z,30.25
2022-07-29T08:45:08.255Z,30.27
2022-07-29T08:47:40.840Z,30.14
2022-07-29T08:50:10.642Z,30.30
2022-07-29T08:52:41.193Z,30.58
2022-07-29T08:55:11.261Z,30.77
2022-07-29T08:57:43.409Z,30.80
2022-07-29T09:00:24.462Z,31.00
2022-07-29T09:02:58.576Z,31.14
2022-07-29T09:17:17.907Z,30.83
2022-07-29T09:19:46.275Z,30.98
2022-07-29T09:22:31.361Z,31.25
2022-07-29T09:24:59.439Z,31.47
2022-07-29T09:27:30.025Z,31.75
2022-07-29T09:30:32.271Z,31.96
2022-07-29T09:33:07.043Z,31.84
2022-07-29T09:35:35.334Z,31.54
2022-07-29T09:38:16.688Z,31.24
2022-07-29T09:41:12.118Z,30.94
2022-07-29T09:43:45.715Z,30.72
2022-07-29T09:46:24.724Z,30.70
2022-07-29T09:49:45.650Z,30.51
2022-07-29T09:56:34.160Z,30.27
2022-07-29T10:04:03.753Z,30.32
2022-07-29T10:16:44.991Z,30.38
2022-07-29T10:21:06.538Z,30.90
2022-07-29T10:23:46.854Z,31.36
2022-07-29T10:27:22.405Z,31.69
2022-07-29T10:38:52.236Z,31.41
2022-07-29T10:42:09.696Z,31.27
2022-07-29T10:44:47.343Z,31.51
2022-07-29T10:54:56.217Z,31.38
2022-07-29T10:57:53.208Z,31.20
2022-07-29T11:01:37.010Z,31.29
2022-07-29T11:05:11.571Z,31.45
2022-07-29T11:08:41.574Z,31.78
2022-07-29T11:17:51.994Z,32.09
2022-07-29T11:55:09.783Z,31.63
2022-07-29T11:57:37.489Z,31.60
2022-07-29T12:04:02.779Z,31.92
2022-07-29T12:25:50.231Z,32.58
2022-07-29T12:29:20.076Z,32.39
2022-07-29T12:36:35.274Z,32.19
2022-07-29T12:39:21.330Z,31.91
2022-07-29T12:46:37.398Z,31.91
2022-07-29T12:50:36.546Z,31.96
2022-07-29T12:53:44.284Z,31.93
2022-07-29T13:00:50.730Z,31.86
2022-07-29T13:07:55.167Z,31.77
2022-07-29T13:10:31.323Z,31.95
2022-07-29T13:13:38.059Z,32.16
2022-07-29T13:20:15.105Z,32.06
2022-07-29T13:22:43.660Z,32.03
2022-07-29T13:25:11.966Z,32.19
2022-07-29T13:27:41.795Z,32.38
2022-07-29T13:30:17.616Z,32.52
2022-07-29T13:32:45.951Z,32.62
2022-07-29T13:35:14.516Z,32.77
2022-07-29T13:37:42.887Z,33.02
2022-07-29T13:40:15.775Z,33.32
2022-07-29T13:42:49.230Z,33.46
2022-07-29T13:45:26.278Z,33.23
2022-07-29T13:48:10.400Z,32.93
2022-07-29T13:50:52.432Z,32.81
2022-07-29T13:53:53.225Z,32.82
2022-07-29T13:56:23.869Z,32.75
2022-07-29T13:58:55.121Z,32.55
2022-07-29T14:01:53.025Z,32.36
2022-07-29T14:04:39.691Z,32.07
2022-07-29T14:07:08.150Z,31.95
2022-07-29T14:09:45.549Z,31.97
2022-07-29T14:12:33.399Z,31.99
2022-07-29T14:15:01.800Z,32.03
2022-07-29T14:17:29.942Z,31.98
2022-07-29T14:19:58.183Z,31.99
2022-07-29T14:22:33.660Z,32.02
2022-07-29T14:25:13.090Z,32.01
2022-07-29T14:27:48.962Z,32.04
2022-07-29T14:30:34.692Z,32.09
2022-07-29T14:33:04.958Z,32.11
2022-07-29T14:35:33.585Z,32.11
2022-07-29T14:38:01.925Z,32.13
2022-07-29T14:40:30.110Z,32.13
2022-07-29T14:42:58.201Z,32.17
2022-07-29T14:45:26.431Z,32.18
2022-07-29T14:47:57.634Z,32.21
2022-07-29T14:50:31.396Z,32.26
2022-07-29T14:53:01.343Z,32.26
2022-07-29T14:55:37.052Z,32.18
2022-07-29T14:58:16.030Z,32.10
2022-07-29T15:00:47.009Z,32.10
2022-07-29T15:03:23.761Z,32.12
2022-07-29T15:05:54.826Z,32.15
2022-07-29T15:08:29.811Z,32.19
2022-07-29T15:11:02.916Z,32.14
2022-07-29T15:13:34.712Z,32.09
2022-07-29T15:16:02.914Z,32.05
2022-07-29T15:18:31.234Z,31.98
2022-07-29T15:21:01.853Z,31.98
2022-07-29T15:23:30.073Z,31.98
2022-07-29T15:25:58.239Z,31.97
2022-07-29T15:28:28.034Z,31.96
2022-07-29T15:31:14.032Z,31.89
2022-07-29T15:33:53.291Z,31.79
2022-07-29T15:36:50.847Z,31.74
2022-07-29T15:39:11.885Z,31.74
2022-07-29T15:41:40.142Z,31.77
2022-07-29T15:44:09.750Z,31.79
2022-07-29T15:46:56.886Z,31.82
2022-07-29T15:49:48.434Z,31.72
2022-07-29T15:52:25.951Z,31.55
2022-07-29T15:54:56.226Z,31.35
2022-07-29T15:57:25.646Z,31.13
2022-07-29T15:59:53.851Z,30.95
2022-07-29T16:02:24.973Z,30.77
2022-07-29T16:04:53.160Z,30.62
2022-07-29T16:07:23.182Z,30.47
2022-07-29T16:09:53.896Z,30.32
2022-07-29T16:12:22.686Z,30.19
2022-07-29T16:14:51.572Z,30.04
2022-07-29T16:17:20.027Z,29.92
2022-07-29T16:19:48.454Z,29.79
2022-07-29T16:22:16.718Z,29.71
2022-07-29T16:24:45.008Z,29.70
2022-07-29T16:27:17.658Z,29.81
2022-07-29T16:29:46.930Z,29.94
2022-07-29T16:32:15.171Z,30.07
2022-07-29T16:34:50.528Z,30.25
2022-07-29T16:37:18.953Z,30.48
2022-07-29T16:39:52.558Z,30.67
2022-07-29T16:42:45.597Z,30.78
2022-07-29T16:45:16.151Z,30.86
2022-07-29T16:47:44.143Z,30.93
2022-07-29T16:50:12.293Z,30.96
2022-07-29T16:52:40.470Z,31.10
2022-07-29T16:55:08.950Z,31.21
2022-07-29T16:57:39.304Z,31.28
2022-07-29T17:00:08.526Z,31.21
2022-07-29T17:02:38.716Z,31.05
2022-07-29T17:05:08.104Z,30.88
2022-07-29T17:07:36.681Z,30.72
2022-07-29T17:10:08.292Z,30.53
2022-07-29T17:12:37.849Z,30.32
2022-07-29T17:15:06.529Z,30.18
2022-07-29T17:17:39.372Z,30.01
2022-07-29T17:20:23.582Z,29.83
2022-07-29T17:22:51.727Z,29.68
2022-07-29T17:25:21.347Z,29.58
2022-07-29T17:27:50.974Z,29.48
2022-07-29T17:30:23.014Z,29.36
2022-07-29T17:32:51.369Z,29.19
2022-07-29T17:35:42.203Z,28.94
2022-07-29T17:38:12.664Z,28.63
2022-07-29T17:40:51.365Z,28.40
2022-07-29T17:43:19.374Z,28.24
2022-07-29T17:45:49.641Z,28.12
2022-07-29T17:48:19.663Z,28.00
2022-07-29T17:50:48.903Z,27.91
2022-07-29T17:53:17.507Z,27.84
2022-07-29T17:55:47.836Z,27.77
2022-07-29T17:58:16.744Z,27.71
2022-07-29T18:00:45.099Z,27.64
2022-07-29T18:03:13.329Z,27.57
2022-07-29T18:05:49.203Z,27.48
2022-07-29T18:08:28.443Z,27.37
2022-07-29T18:10:56.773Z,27.27
2022-07-29T18:13:26.510Z,27.18
2022-07-29T18:15:57.605Z,27.09
2022-07-29T18:18:28.409Z,26.98
2022-07-29T18:20:56.828Z,26.87
2022-07-29T18:23:30.517Z,26.76
2022-07-29T18:26:10.021Z,26.67
2022-07-29T18:28:38.222Z,26.59
2022-07-29T18:31:08.197Z,26.50
2022-07-29T18:33:36.312Z,26.43
2022-07-29T18:36:10.810Z,26.38
2022-07-29T18:38:41.330Z,26.32
2022-07-29T18:41:09.571Z,26.28
2022-07-29T18:43:37.735Z,26.21
2022-07-29T18:46:06.869Z,26.17
2022-07-29T18:48:35.505Z,26.14
2022-07-29T18:51:11.785Z,26.10
2022-07-29T18:53:39.919Z,26.03
2022-07-29T18:56:08.131Z,25.97
2022-07-29T18:58:38.391Z,25.92
2022-07-29T19:01:07.697Z,25.88
2022-07-29T19:03:36.167Z,25.83
2022-07-29T19:06:04.765Z,25.79
2022-07-29T19:08:33.916Z,25.76
2022-07-29T19:11:01.991Z,25.71
2022-07-29T19:13:31.074Z,25.67
2022-07-29T19:15:59.309Z,25.64
2022-07-29T19:18:27.620Z,25.59
2022-07-29T19:20:57.720Z,25.55
2022-07-29T19:23:25.770Z,25.50
2022-07-29T19:26:08.432Z,25.45
2022-07-29T19:28:36.788Z,25.42
2022-07-29T19:31:05.405Z,25.38
2022-07-29T19:33:35.640Z,25.35
2022-07-29T19:36:04.181Z,25.31
2022-07-29T19:41:25.148Z,25.18
2022-07-29T19:43:55.175Z,25.11
2022-07-29T19:46:24.234Z,25.07
2022-07-29T19:48:58.173Z,25.03
2022-07-29T19:51:27.303Z,25.00
2022-07-29T19:54:20.876Z,24.95
2022-07-29T19:57:04.107Z,24.89
2022-07-29T19:59:33.250Z,24.81
2022-07-29T20:02:15.552Z,24.70
2022-07-29T20:04:46.983Z,24.59
2022-07-29T20:07:15.481Z,24.53
2022-07-29T20:09:44.702Z,24.49
2022-07-29T20:12:12.971Z,24.46
2022-07-29T20:14:41.649Z,24.41
2022-07-29T20:17:10.179Z,24.32
2022-07-29T20:19:39.210Z,24.20
2022-07-29T20:22:10.076Z,24.09
2022-07-29T20:24:44.805Z,24.03
2022-07-29T20:27:15.650Z,24.00
2022-07-29T20:29:54.398Z,23.99
2022-07-29T20:32:59.588Z,23.94
2022-07-29T20:35:29.920Z,23.85
2022-07-29T20:38:15.130Z,23.76
2022-07-29T20:40:46.582Z,23.71
2022-07-29T20:43:14.920Z,23.69
2022-07-29T20:45:46.711Z,23.68
2022-07-29T20:48:19.602Z,23.69
2022-07-29T20:50:51.773Z,23.67
2022-07-29T20:54:13.076Z,23.63
2022-07-29T21:11:51.421Z,23.18
2022-07-29T21:15:05.888Z,23.20
2022-07-29T21:18:34.551Z,23.21
2022-07-29T21:21:08.587Z,23.24
2022-07-29T21:24:08.670Z,23.26
2022-07-29T21:27:51.498Z,23.29
